createdAt,value
2019-04-11T00:58:09.864Z,5.36
2019-04-11T01:00:37.080Z,5.25
2019-04-11T01:03:12.444Z,5.23
2019-04-11T01:05:47.844Z,5.23
2019-04-11T01:08:22.571Z,5.17
2019-04-11T01:10:57.458Z,5.11
2019-04-11T01:13:41.476Z,5.13
2019-04-11T01:16:20.130Z,5.15
2019-04-11T01:18:54.819Z,5.12
2019-04-11T01:21:29.308Z,5.15
2019-04-11T01:24:07.214Z,5.08
2019-04-11T01:26:41.914Z,5.00
2019-04-11T01:29:17.568Z,4.95
2019-04-11T01:31:54.939Z,4.89
2019-04-11T01:34:29.437Z,4.82
2019-04-11T01:37:03.948Z,4.79
2019-04-11T01:40:07.672Z,4.74
2019-04-11T01:42:41.788Z,4.74
2019-04-11T01:45:19.062Z,4.67
2019-04-11T01:48:19.584Z,4.68
2019-04-11T01:50:54.284Z,4.61
2019-04-11T01:53:28.943Z,4.56
2019-04-11T01:56:02.875Z,4.52
2019-04-11T01:58:38.485Z,4.47
2019-04-11T02:02:17.083Z,4.50
2019-04-11T02:04:56.579Z,4.32
2019-04-11T02:07:31.039Z,4.32
2019-04-11T02:10:05.913Z,4.23
2019-04-11T02:12:41.447Z,4.23
2019-04-11T02:15:16.794Z,4.24
2019-04-11T02:17:51.302Z,4.22
2019-04-11T02:20:27.149Z,4.19
2019-04-11T02:23:06.795Z,4.18
2019-04-11T02:26:11.476Z,4.18
2019-04-11T02:28:46.701Z,4.16
2019-04-11T02:31:22.141Z,4.11
2019-04-11T02:33:57.334Z,4.16
2019-04-11T02:36:33.720Z,4.15
2019-04-11T02:40:15.419Z,4.15
2019-04-11T02:42:51.848Z,4.16
2019-04-11T02:45:39.757Z,4.12
2019-04-11T02:48:04.046Z,4.10
2019-04-11T02:50:41.476Z,4.09
2019-04-11T02:53:17.008Z,4.09
2019-04-11T02:55:54.208Z,4.11
2019-04-11T02:58:30.094Z,4.10
2019-04-11T03:05:44.004Z,4.05
2019-04-11T03:08:19.950Z,4.01
2019-04-11T03:10:55.704Z,4.01
2019-04-11T03:13:33.196Z,3.96
2019-04-11T03:16:25.005Z,3.89
2019-04-11T03:18:58.957Z,3.89
2019-04-11T03:21:22.503Z,3.87
2019-04-11T03:23:58.925Z,3.83
2019-04-11T03:26:35.514Z,3.77
2019-04-11T03:29:11.174Z,3.66
2019-04-11T03:32:34.095Z,3.53
2019-04-11T03:35:09.549Z,3.53
2019-04-11T03:37:23.081Z,3.57
2019-04-11T03:39:57.424Z,3.57
2019-04-11T03:42:29.976Z,3.58
2019-04-11T03:51:27.614Z,3.45
2019-04-11T03:53:34.305Z,3.44
2019-04-11T04:18:03.684Z,3.19
2019-04-11T04:20:57.684Z,3.20
2019-04-11T04:23:37.876Z,3.18
2019-04-11T04:26:12.189Z,3.22
2019-04-11T04:28:47.604Z,3.21
2019-04-11T04:31:24.282Z,3.20
2019-04-11T04:33:59.615Z,3.20
2019-04-11T04:36:34.680Z,3.28
2019-04-11T04:39:10.544Z,3.33
2019-04-11T04:42:00.539Z,3.34
2019-04-11T04:44:26.488Z,3.36
2019-04-11T04:47:13.656Z,3.41
2019-04-11T04:49:38.797Z,3.48
2019-04-11T04:52:14.427Z,3.47
2019-04-11T04:54:49.278Z,3.47
2019-04-11T04:57:24.496Z,3.55
2019-04-11T05:00:00.151Z,3.65
2019-04-11T05:03:42.466Z,3.80
2019-04-11T05:06:18.505Z,3.88
2019-04-11T05:08:53.284Z,3.88
2019-04-11T05:11:28.331Z,3.87
2019-04-11T05:14:03.130Z,3.91
2019-04-11T05:16:37.704Z,3.91
2019-04-11T05:19:12.863Z,3.97
2019-04-11T05:21:47.834Z,4.07
2019-04-11T05:24:20.911Z,4.15
2019-04-11T05:26:55.828Z,4.11
2019-04-11T05:29:30.620Z,4.25
2019-04-11T05:32:07.271Z,4.25
2019-04-11T05:34:41.940Z,4.26
2019-04-11T05:37:15.334Z,4.27
2019-04-11T05:39:50.470Z,4.38
2019-04-11T05:42:26.997Z,4.46
2019-04-11T05:45:01.234Z,4.58
2019-04-11T05:47:35.712Z,4.61
2019-04-11T05:50:26.354Z,4.66
2019-04-11T05:53:03.784Z,4.76
2019-04-11T05:55:43.250Z,4.84
2019-04-11T05:58:17.686Z,5.03
2019-04-11T06:01:18.450Z,5.03
2019-04-11T06:03:53.788Z,5.06
2019-04-11T06:06:44.350Z,5.21
2019-04-11T06:09:24.278Z,5.42
2019-04-11T06:12:23.662Z,5.78
2019-04-11T06:15:11.665Z,6.05
2019-04-11T06:17:46.712Z,6.51
2019-04-11T06:20:45.786Z,6.51
2019-04-11T06:23:37.147Z,6.70
2019-04-11T06:26:30.476Z,7.00
2019-04-11T06:29:18.323Z,7.00
2019-04-11T06:32:09.750Z,7.17
2019-04-11T06:34:51.234Z,7.36
2019-04-11T06:37:49.957Z,7.47
2019-04-11T06:40:29.229Z,7.70
2019-04-11T06:43:14.526Z,7.62
2019-04-11T06:46:20.809Z,7.92
2019-04-11T06:49:12.008Z,8.06
2019-04-11T06:51:50.524Z,8.34
2019-04-11T06:54:32.848Z,8.51
2019-04-11T06:57:11.789Z,8.77
2019-04-11T06:59:48.344Z,9.03
2019-04-11T07:02:25.082Z,9.31
2019-04-11T07:05:04.207Z,9.55
2019-04-11T07:07:40.855Z,9.74
2019-04-11T07:10:15.589Z,10.24
2019-04-11T07:13:01.567Z,10.24
2019-04-11T07:15:42.416Z,10.47
2019-04-11T07:18:54.788Z,10.94
2019-04-11T07:25:45.131Z,11.12
2019-04-11T07:28:39.479Z,11.16
2019-04-11T07:31:32.273Z,11.37
2019-04-11T07:34:32.723Z,11.57
2019-04-11T07:37:21.868Z,12.13
2019-04-11T07:40:26.753Z,12.13
2019-04-11T07:43:15.161Z,12.64
2019-04-11T07:46:24.978Z,12.64
2019-04-11T07:49:05.952Z,12.72
2019-04-11T07:51:48.624Z,12.70
2019-04-11T07:54:23.689Z,13.30
2019-04-11T07:57:12.920Z,13.30
2019-04-11T08:00:03.823Z,13.56
2019-04-11T08:03:00.282Z,13.97
2019-04-11T08:05:46.801Z,13.97
2019-04-11T08:08:38.988Z,14.19
2019-04-11T08:11:30.311Z,15.40
2019-04-11T08:14:26.644Z,15.40
2019-04-11T08:17:26.814Z,16.34
2019-04-11T08:20:25.627Z,17.09
2019-04-11T08:23:03.533Z,17.20
2019-04-11T08:26:06.029Z,17.53
2019-04-11T08:28:41.770Z,19.37
2019-04-11T08:31:36.501Z,19.37
2019-04-11T08:34:11.094Z,18.47
2019-04-11T08:37:03.426Z,17.54
2019-04-11T08:39:41.887Z,17.58
2019-04-11T08:42:43.572Z,16.97
2019-04-11T08:45:19.552Z,16.38
2019-04-11T08:47:57.291Z,16.46
2019-04-11T08:50:34.318Z,15.36
2019-04-11T08:53:35.056Z,17.00
2019-04-11T08:56:10.654Z,17.22
2019-04-11T08:59:33.569Z,15.79
2019-04-11T09:02:08.773Z,16.59
2019-04-11T09:05:06.933Z,16.80
2019-04-11T09:07:45.707Z,16.98
2019-04-11T09:10:42.364Z,17.58
2019-04-11T09:13:35.570Z,16.89
2019-04-11T09:16:27.796Z,15.72
2019-04-11T09:19:04.824Z,16.04
2019-04-11T09:22:13.078Z,15.36
2019-04-11T09:25:03.330Z,17.02
2019-04-11T09:27:55.916Z,15.43
2019-04-11T09:30:45.143Z,15.43
2019-04-11T09:33:49.072Z,14.45
2019-04-11T09:37:07.360Z,14.22
2019-04-11T09:40:07.824Z,15.74
2019-04-11T09:43:04.116Z,16.65
2019-04-11T09:45:57.690Z,16.75
2019-04-11T09:48:59.652Z,17.89
2019-04-11T09:51:58.702Z,16.28
2019-04-11T09:54:57.509Z,17.32
2019-04-11T09:57:37.671Z,18.51
2019-04-11T10:00:41.050Z,19.93
2019-04-11T10:03:19.859Z,19.38
2019-04-11T10:06:28.615Z,17.33
2019-04-11T10:09:03.786Z,16.84
2019-04-11T10:11:56.827Z,16.07
2019-04-11T10:14:31.810Z,16.11
2019-04-11T10:17:26.289Z,17.08
2019-04-11T10:20:08.911Z,18.64
2019-04-11T10:23:05.077Z,20.37
2019-04-11T10:26:01.679Z,20.37
2019-04-11T10:28:51.788Z,21.16
2019-04-11T10:31:50.980Z,22.40
2019-04-11T10:34:50.290Z,22.19
2019-04-11T10:37:25.525Z,22.76
2019-04-11T10:40:26.051Z,23.25
2019-04-11T10:43:18.342Z,21.78
2019-04-11T10:46:07.160Z,19.73
2019-04-11T10:48:56.999Z,19.73
2019-04-11T10:51:50.868Z,19.91
2019-04-11T10:54:33.755Z,19.91
2019-04-11T10:57:36.172Z,20.01
2019-04-11T11:00:29.444Z,19.46
2019-04-11T11:03:27.294Z,19.91
2019-04-11T11:06:05.314Z,19.22
2019-04-11T11:08:55.494Z,21.03
2019-04-11T11:11:34.565Z,21.03
2019-04-11T11:14:18.923Z,19.78
2019-04-11T11:17:02.422Z,20.14
2019-04-11T11:20:03.875Z,20.39
2019-04-11T11:23:11.522Z,19.35
2019-04-11T11:28:09.478Z,17.76
2019-04-11T11:29:51.634Z,17.76
2019-04-11T11:36:37.458Z,21.17
2019-04-11T11:40:02.553Z,21.17
2019-04-11T11:42:52.558Z,20.20
2019-04-11T11:45:56.891Z,20.00
2019-04-11T11:49:06.034Z,20.14
2019-04-11T11:52:31.895Z,22.72
2019-04-11T11:55:39.247Z,22.72
2019-04-11T11:58:25.865Z,21.89
2019-04-11T12:01:03.664Z,23.89
2019-04-11T12:04:08.654Z,24.04
2019-04-11T12:06:43.456Z,25.35
2019-04-11T12:09:43.180Z,24.06
2019-04-11T12:12:22.455Z,24.35
2019-04-11T12:15:22.269Z,24.15
2019-04-11T12:18:16.751Z,26.26
2019-04-11T12:20:58.791Z,26.81
2019-04-11T12:24:00.655Z,26.81
2019-04-11T12:26:32.806Z,27.72
2019-04-11T12:29:26.989Z,24.84
2019-04-11T12:32:16.522Z,22.10
2019-04-11T12:35:08.549Z,22.10
2019-04-11T12:37:50.742Z,22.78
2019-04-11T12:40:41.453Z,23.43
2019-04-11T12:43:17.401Z,22.09
2019-04-11T12:46:30.411Z,20.57
2019-04-11T12:49:15.954Z,19.84
2019-04-11T12:52:07.703Z,18.98
2019-04-11T12:58:07.308Z,18.07
2019-04-11T13:01:06.304Z,18.07
2019-04-11T13:04:12.375Z,20.80
2019-04-11T13:07:03.651Z,22.15
2019-04-11T13:10:09.291Z,20.43
2019-04-11T13:13:03.376Z,19.84
2019-04-11T13:15:48.374Z,18.70
2019-04-11T13:18:40.985Z,17.74
2019-04-11T13:21:23.285Z,17.74
2019-04-11T13:24:16.955Z,16.97
2019-04-11T13:27:13.120Z,20.96
2019-04-11T13:30:18.401Z,21.28
2019-04-11T13:36:42.542Z,19.22
2019-04-11T13:39:17.347Z,17.80
2019-04-11T13:42:16.727Z,16.94
2019-04-11T13:44:51.291Z,16.36
2019-04-11T13:48:41.989Z,15.48
2019-04-11T13:51:22.466Z,15.48
2019-04-11T13:54:15.313Z,15.20
2019-04-11T13:57:08.650Z,14.37
2019-04-11T14:00:20.276Z,14.37
2019-04-11T14:03:13.522Z,14.05
2019-04-11T14:05:48.284Z,13.77
2019-04-11T14:08:27.276Z,13.53
2019-04-11T14:11:11.261Z,13.46
2019-04-11T14:13:46.148Z,13.38
2019-04-11T14:16:23.605Z,13.67
2019-04-11T14:19:15.450Z,13.67
2019-04-11T14:21:50.684Z,13.60
2019-04-11T14:24:49.259Z,13.46
2019-04-11T14:27:27.096Z,13.39
2019-04-11T14:30:24.665Z,13.19
2019-04-11T14:33:14.312Z,13.04
2019-04-11T14:36:19.575Z,12.99
2019-04-11T14:39:04.283Z,12.82
2019-04-11T14:42:00.961Z,12.73
2019-04-11T14:44:38.600Z,12.84
2019-04-11T14:47:49.490Z,12.84
2019-04-11T14:50:56.771Z,12.67
2019-04-11T14:53:57.704Z,12.48
2019-04-11T14:56:34.502Z,12.16
2019-04-11T14:59:32.137Z,11.69
2019-04-11T15:02:21.938Z,11.46
2019-04-11T15:05:13.818Z,11.46
2019-04-11T15:08:21.066Z,11.33
2019-04-11T15:11:23.450Z,11.11
2019-04-11T15:14:08.202Z,10.98
2019-04-11T15:17:11.114Z,10.85
2019-04-11T15:19:51.337Z,10.68
2019-04-11T15:22:52.136Z,10.68
2019-04-11T15:25:51.295Z,10.66
2019-04-11T15:28:46.632Z,10.66
2019-04-11T15:31:53.323Z,10.58
2019-04-11T15:34:41.667Z,10.60
2019-04-11T15:37:47.253Z,10.61
2019-04-11T15:40:26.685Z,10.37
2019-04-11T15:43:24.860Z,10.37
2019-04-11T15:46:03.279Z,10.22
2019-04-11T15:49:02.614Z,10.22
2019-04-11T15:51:41.277Z,10.21
2019-04-11T15:54:41.893Z,10.09
2019-04-11T15:57:26.973Z,10.08
2019-04-11T16:00:23.370Z,9.93
2019-04-11T16:03:21.155Z,9.93
2019-04-11T16:06:21.457Z,9.91
2019-04-11T16:09:00.173Z,9.86
2019-04-11T16:11:54.883Z,9.85
2019-04-11T16:14:37.652Z,9.78
2019-04-11T16:17:42.377Z,9.76
2019-04-11T16:20:23.281Z,9.60
2019-04-11T16:23:26.363Z,9.60
2019-04-11T16:26:03.826Z,9.51
2019-04-11T16:29:18.498Z,9.43
2019-04-11T16:31:56.776Z,9.32
2019-04-11T16:37:54.281Z,9.40
2019-04-11T16:41:16.397Z,9.26
2019-04-11T16:43:55.398Z,9.26
2019-04-11T16:46:59.281Z,9.18
2019-04-11T16:49:42.243Z,9.19
2019-04-11T16:53:05.344Z,9.12
2019-04-11T16:56:36.520Z,9.07
2019-04-11T16:58:50.133Z,9.04
2019-04-11T17:23:57.553Z,8.66
2019-04-11T17:34:53.579Z,8.37
2019-04-11T17:37:34.830Z,8.43
2019-04-11T17:40:18.023Z,8.43
2019-04-11T17:43:59.313Z,8.37
2019-04-11T17:47:12.785Z,8.37
2019-04-11T18:14:18.986Z,8.61
2019-04-11T18:17:03.901Z,8.39
2019-04-11T18:19:37.967Z,8.16
2019-04-11T18:26:22.018Z,8.11
2019-04-11T18:28:59.163Z,8.11
2019-04-11T18:31:33.380Z,8.06
2019-04-11T18:35:17.282Z,8.11
2019-04-11T18:38:32.702Z,8.11
2019-04-11T18:41:07.585Z,8.04
2019-04-11T18:43:41.962Z,8.03
2019-04-11T18:46:21.115Z,7.88
2019-04-11T18:48:58.439Z,7.88
2019-04-11T18:51:35.773Z,7.89
2019-04-11T18:54:08.944Z,7.81
2019-04-11T18:56:44.860Z,7.80
2019-04-11T18:59:22.711Z,7.71
2019-04-11T19:01:56.293Z,7.69
2019-04-11T19:04:33.093Z,7.64
2019-04-11T19:07:08.306Z,7.57
2019-04-11T19:09:44.482Z,7.61
2019-04-11T19:19:58.364Z,7.63
2019-04-11T19:22:37.718Z,7.60
2019-04-11T19:25:14.693Z,7.57
2019-04-11T19:27:50.072Z,7.57
2019-04-11T19:30:26.371Z,7.56
2019-04-11T19:33:03.940Z,7.53
2019-04-11T19:35:41.721Z,7.42
2019-04-11T19:41:38.913Z,7.47
2019-04-11T19:44:13.680Z,7.30
2019-04-11T19:47:25.630Z,7.30
2019-04-11T19:50:58.635Z,7.29
2019-04-11T19:53:35.831Z,7.26
2019-04-11T19:56:38.361Z,7.28
2019-04-11T19:59:18.490Z,7.30
2019-04-11T20:13:11.753Z,7.16
2019-04-11T20:15:45.076Z,7.20
2019-04-11T20:18:22.179Z,7.24
2019-04-11T20:22:19.697Z,7.24
2019-04-11T20:24:52.915Z,7.24
2019-04-11T20:27:27.152Z,7.26
2019-04-11T20:30:01.732Z,7.24
2019-04-11T20:32:37.765Z,7.28
2019-04-11T20:35:11.061Z,7.31
2019-04-11T20:37:44.647Z,7.31
2019-04-11T20:40:22.515Z,7.26
2019-04-11T20:42:56.889Z,7.26
2019-04-11T20:45:31.446Z,7.14
2019-04-11T20:48:05.703Z,7.12
2019-04-11T20:50:40.165Z,7.12
2019-04-11T20:53:14.682Z,7.19
2019-04-11T20:55:49.133Z,7.19
2019-04-11T20:58:27.412Z,7.22
2019-04-11T21:01:00.957Z,7.19
2019-04-11T21:03:37.696Z,7.16
2019-04-11T21:06:12.241Z,7.16
2019-04-11T21:08:47.662Z,7.11
2019-04-11T21:11:22.070Z,7.11
2019-04-11T21:13:56.988Z,7.21
2019-04-11T21:16:31.417Z,7.19
2019-04-11T21:19:05.996Z,7.19
2019-04-11T21:21:40.340Z,7.23
2019-04-11T21:24:14.954Z,7.22
2019-04-11T21:26:47.864Z,7.15
2019-04-11T21:29:22.122Z,7.15
2019-04-11T21:32:00.899Z,7.02
2019-04-11T21:34:32.945Z,7.02
2019-04-11T21:37:07.364Z,6.87
2019-04-11T21:39:41.955Z,6.88
2019-04-11T21:42:16.282Z,6.75
2019-04-11T21:44:50.952Z,6.79
2019-04-11T21:47:25.275Z,6.82
2019-04-11T21:49:59.687Z,6.80
2019-04-11T21:52:34.305Z,6.83
2019-04-11T21:55:09.283Z,6.81
2019-04-11T21:57:48.465Z,6.74
2019-04-11T22:00:30.389Z,6.70
2019-04-11T22:03:06.810Z,6.64
2019-04-11T22:05:42.748Z,6.57
2019-04-11T22:08:17.322Z,6.61
2019-04-11T22:10:52.296Z,6.56
2019-04-11T22:13:27.100Z,6.56
2019-04-11T22:16:01.754Z,6.54
2019-04-11T22:18:36.270Z,6.54
2019-04-11T22:21:12.943Z,6.55
2019-04-11T22:23:48.802Z,6.53
2019-04-11T22:26:21.954Z,6.49
2019-04-11T22:28:56.304Z,6.50
2019-04-11T22:31:31.111Z,6.45
2019-04-11T22:34:22.270Z,6.49
2019-04-11T22:36:59.772Z,6.50
2019-04-11T22:39:32.955Z,6.48
2019-04-11T22:42:06.290Z,6.57
2019-04-11T22:44:40.781Z,6.59
2019-04-11T22:47:13.877Z,6.60
2019-04-11T22:49:48.504Z,6.56
2019-04-11T22:52:22.961Z,6.54
2019-04-11T22:54:57.329Z,6.52
2019-04-11T22:57:31.960Z,6.52
2019-04-11T23:00:08.140Z,6.55
2019-04-11T23:03:02.685Z,6.43
2019-04-11T23:05:37.286Z,6.42
2019-04-11T23:08:12.709Z,6.45
2019-04-11T23:10:47.449Z,6.48
2019-04-11T23:13:21.959Z,6.51
2019-04-11T23:15:54.878Z,6.52
2019-04-11T23:18:29.128Z,6.56
2019-04-11T23:21:03.463Z,6.44
2019-04-11T23:23:38.093Z,6.43
2019-04-11T23:26:12.310Z,6.42
2019-04-11T23:28:46.956Z,6.42
2019-04-11T23:31:21.415Z,6.45
2019-04-11T23:33:55.995Z,6.42
2019-04-11T23:37:02.364Z,6.46
2019-04-11T23:39:36.878Z,6.36
2019-04-11T23:42:12.266Z,6.42
2019-04-11T23:44:47.886Z,6.45
2019-04-11T23:47:23.780Z,6.43
2019-04-11T23:49:56.874Z,6.37
2019-04-11T23:52:31.286Z,6.37
2019-04-11T23:55:05.793Z,6.33
2019-04-11T23:57:38.871Z,6.32
